Página principal
METAR-TAF:

METAR-TAF

Aeroportos :

N'Djamena, Chade

Aeroporto Internacional de N'Djamena

latitude: 12-08N, longitude: 015-02E, altura: 295 m

Observação actual do tempo

O boletim foi feito há 52 minutos, às 23:00 UTC
Vento 4 kt de oeste
Temperatura 26°C
Humidade 89%
Pressão 1011 hPa
Visibilidade 10 km ou mais
sem nuvens abaixo de 1500 metros e sem cumulonimbus

METAR: FTTJ 182300Z 26004KT CAVOK 26/24 Q1011 NOSIG

Hora: 00:52 (23:52 UTC)

Previsão

O boletim foi feito há 42 minutos, às 23:10 UTC
Previsão válida de 19 às 00 UTC a 20 às 06 UTC
Vento 6 kt de oeste
Visibilidade 10 km ou mais
Poucas nuvensa uma altura de 2600 ft
Probabilidade 30% :
Temporariamente
de 19 às 03 UTC a 19 às 07 UTC
Visibilidade: 4500 m
trovoada, chuva
Probabilidade 30% :
Temporariamente
de 19 às 12 UTC a 19 às 21 UTC
Visibilidade: 4500 m
trovoada, chuva

TAF: FTTJ 182310Z 1900/2006 28006KT 9999 FEW026 PROB30 TEMPO 1903/1907 4500 TSRA PROB30 TEMPO 1912/1921 4500 TSRA

Observações e previsões do tempo de mais de 4000 aeroportos (mensagens METAR e TAF).

As estações disponíveis são os pontos amarelos e vermelhos sobre o mapa.

Mova o rato sobre o mapa para ver o nome da estação.

Depois clique no ponto para visualizar as observações e previsões meteorológicas.

Para alterar o mapa : clique nos botões verdes com uma cruz preta para aumentar o zoom; no botão verde com uma pitada de zoom; ou nas setas verdes para mapas adjacentes.


METAR-TAF: